sensor_id;sensor_type;location;lat;lon;timestamp;pressure;altitude;pressure_sealevel;temperature;humidity
62201;BME280;48197;42.732;27.192;2023-07-29T00:01:02;99532.03;;;16.06;100.00
62201;BME280;48197;42.732;27.192;2023-07-29T00:03:27;99526.69;;;16.12;100.00
62201;BME280;48197;42.732;27.192;2023-07-29T00:05:56;99520.88;;;16.19;100.00
62201;BME280;48197;42.732;27.192;2023-07-29T00:08:23;99522.97;;;16.28;100.00
62201;BME280;48197;42.732;27.192;2023-07-29T00:10:50;99522.19;;;16.40;100.00
62201;BME280;48197;42.732;27.192;2023-07-29T00:13:16;99524.53;;;16.42;100.00
62201;BME280;48197;42.732;27.192;2023-07-29T00:15:43;99517.19;;;16.35;100.00
62201;BME280;48197;42.732;27.192;2023-07-29T00:18:10;99508.06;;;16.22;100.00
62201;BME280;48197;42.732;27.192;2023-07-29T00:20:37;99514.94;;;16.17;100.00
62201;BME280;48197;42.732;27.192;2023-07-29T00:23:03;99512.66;;;16.03;100.00
62201;BME280;48197;42.732;27.192;2023-07-29T00:25:30;99505.16;;;15.87;100.00
62201;BME280;48197;42.732;27.192;2023-07-29T00:27:57;99510.28;;;15.76;100.00
62201;BME280;48197;42.732;27.192;2023-07-29T00:30:25;99500.13;;;15.69;100.00
62201;BME280;48197;42.732;27.192;2023-07-29T00:32:52;99505.47;;;15.63;100.00
62201;BME280;48197;42.732;27.192;2023-07-29T00:35:18;99504.56;;;15.54;100.00
62201;BME280;48197;42.732;27.192;2023-07-29T00:37:46;99497.84;;;15.51;100.00
62201;BME280;48197;42.732;27.192;2023-07-29T00:40:16;99495.31;;;15.57;100.00
62201;BME280;48197;42.732;27.192;2023-07-29T00:42:45;99487.53;;;15.64;100.00
62201;BME280;48197;42.732;27.192;2023-07-29T00:45:13;99485.41;;;15.68;100.00
62201;BME280;48197;42.732;27.192;2023-07-29T00:47:40;99485.28;;;15.59;100.00
62201;BME280;48197;42.732;27.192;2023-07-29T00:50:09;99485.84;;;15.41;100.00
62201;BME280;48197;42.732;27.192;2023-07-29T00:52:36;99479.13;;;15.26;100.00
62201;BME280;48197;42.732;27.192;2023-07-29T00:55:03;99455.91;;;15.03;100.00
62201;BME280;48197;42.732;27.192;2023-07-29T00:57:31;99488.13;;;15.17;100.00
62201;BME280;48197;42.732;27.192;2023-07-29T00:59:57;99479.97;;;15.10;100.00
62201;BME280;48197;42.732;27.192;2023-07-29T01:02:24;99481.19;;;15.09;100.00
62201;BME280;48197;42.732;27.192;2023-07-29T01:05:01;99484.97;;;15.02;100.00
62201;BME280;48197;42.732;27.192;2023-07-29T01:07:30;99484.72;;;14.97;100.00
62201;BME280;48197;42.732;27.192;2023-07-29T01:10:01;99477.78;;;14.88;100.00
62201;BME280;48197;42.732;27.192;2023-07-29T01:15:12;99476.06;;;14.78;100.00
62201;BME280;48197;42.732;27.192;2023-07-29T01:17:42;99474.28;;;14.72;100.00
62201;BME280;48197;42.732;27.192;2023-07-29T01:20:13;99469.59;;;14.68;100.00
62201;BME280;48197;42.732;27.192;2023-07-29T01:22:41;99475.94;;;14.69;100.00
62201;BME280;48197;42.732;27.192;2023-07-29T01:25:07;99475.03;;;14.72;100.00
62201;BME280;48197;42.732;27.192;2023-07-29T01:27:34;99472.81;;;14.96;100.00
62201;BME280;48197;42.732;27.192;2023-07-29T01:30:01;99469.44;;;15.30;100.00
62201;BME280;48197;42.732;27.192;2023-07-29T01:32:43;99472.25;;;15.43;100.00
62201;BME280;48197;42.732;27.192;2023-07-29T01:35:27;99469.47;;;15.43;100.00
62201;BME280;48197;42.732;27.192;2023-07-29T01:38:09;99457.97;;;15.28;100.00
62201;BME280;48197;42.732;27.192;2023-07-29T01:40:37;99466.38;;;15.12;100.00
62201;BME280;48197;42.732;27.192;2023-07-29T01:43:04;99461.22;;;14.98;100.00
62201;BME280;48197;42.732;27.192;2023-07-29T01:45:31;99465.13;;;14.87;100.00
62201;BME280;48197;42.732;27.192;2023-07-29T01:48:01;99471.53;;;14.84;100.00
62201;BME280;48197;42.732;27.192;2023-07-29T01:50:28;99465.97;;;14.84;100.00
62201;BME280;48197;42.732;27.192;2023-07-29T01:52:55;99471.66;;;14.81;100.00
62201;BME280;48197;42.732;27.192;2023-07-29T01:55:22;99470.84;;;14.80;100.00
62201;BME280;48197;42.732;27.192;2023-07-29T01:57:49;99462.75;;;14.86;100.00
62201;BME280;48197;42.732;27.192;2023-07-29T02:00:18;99461.66;;;14.83;100.00
62201;BME280;48197;42.732;27.192;2023-07-29T02:02:45;99453.97;;;14.87;100.00
62201;BME280;48197;42.732;27.192;2023-07-29T02:05:10;99456.22;;;14.93;100.00
62201;BME280;48197;42.732;27.192;2023-07-29T02:07:37;99462.13;;;14.95;100.00
62201;BME280;48197;42.732;27.192;2023-07-29T02:10:04;99467.44;;;14.89;100.00
62201;BME280;48197;42.732;27.192;2023-07-29T02:12:31;99456.59;;;14.78;100.00
62201;BME280;48197;42.732;27.192;2023-07-29T02:14:57;99462.47;;;14.67;100.00
62201;BME280;48197;42.732;27.192;2023-07-29T02:17:25;99455.97;;;14.58;100.00
62201;BME280;48197;42.732;27.192;2023-07-29T02:19:53;99458.47;;;14.52;100.00
62201;BME280;48197;42.732;27.192;2023-07-29T02:22:20;99466.00;;;14.55;100.00
62201;BME280;48197;42.732;27.192;2023-07-29T02:24:46;99461.09;;;14.59;100.00
62201;BME280;48197;42.732;27.192;2023-07-29T02:27:14;99457.00;;;14.64;100.00
62201;BME280;48197;42.732;27.192;2023-07-29T02:29:41;99460.13;;;14.66;100.00
62201;BME280;48197;42.732;27.192;2023-07-29T02:32:08;99464.81;;;14.69;100.00
62201;BME280;48197;42.732;27.192;2023-07-29T02:34:35;99464.81;;;14.69;100.00
62201;BME280;48197;42.732;27.192;2023-07-29T02:37:02;99468.47;;;14.66;100.00
62201;BME280;48197;42.732;27.192;2023-07-29T02:39:29;99467.34;;;14.63;100.00
62201;BME280;48197;42.732;27.192;2023-07-29T02:41:56;99472.91;;;14.63;100.00
62201;BME280;48197;42.732;27.192;2023-07-29T02:44:24;99473.69;;;14.64;100.00
62201;BME280;48197;42.732;27.192;2023-07-29T02:46:51;99472.81;;;14.67;100.00
62201;BME280;48197;42.732;27.192;2023-07-29T02:49:21;99487.84;;;14.69;100.00
62201;BME280;48197;42.732;27.192;2023-07-29T02:51:48;99480.72;;;14.68;100.00
62201;BME280;48197;42.732;27.192;2023-07-29T02:54:15;99485.50;;;14.68;100.00
62201;BME280;48197;42.732;27.192;2023-07-29T02:56:41;99483.50;;;14.68;100.00
62201;BME280;48197;42.732;27.192;2023-07-29T02:59:07;99491.41;;;14.70;100.00
62201;BME280;48197;42.732;27.192;2023-07-29T03:01:34;99489.41;;;14.70;100.00
62201;BME280;48197;42.732;27.192;2023-07-29T03:04:01;99477.81;;;14.72;100.00
62201;BME280;48197;42.732;27.192;2023-07-29T03:06:27;99485.75;;;14.74;100.00
62201;BME280;48197;42.732;27.192;2023-07-29T03:08:54;99484.97;;;14.73;100.00
62201;BME280;48197;42.732;27.192;2023-07-29T03:11:21;99479.06;;;14.71;100.00
62201;BME280;48197;42.732;27.192;2023-07-29T03:13:47;99475.50;;;14.70;100.00
62201;BME280;48197;42.732;27.192;2023-07-29T03:16:15;99484.28;;;14.69;100.00
62201;BME280;48197;42.732;27.192;2023-07-29T03:18:41;99487.84;;;14.69;100.00
62201;BME280;48197;42.732;27.192;2023-07-29T03:21:09;99488.28;;;14.68;100.00
62201;BME280;48197;42.732;27.192;2023-07-29T03:23:36;99486.38;;;14.65;100.00
62201;BME280;48197;42.732;27.192;2023-07-29T03:26:03;99484.81;;;14.64;100.00
62201;BME280;48197;42.732;27.192;2023-07-29T03:28:39;99483.25;;;14.63;100.00
62201;BME280;48197;42.732;27.192;2023-07-29T03:31:07;99493.59;;;14.62;100.00
62201;BME280;48197;42.732;27.192;2023-07-29T03:33:34;99501.59;;;14.60;100.00
62201;BME280;48197;42.732;27.192;2023-07-29T03:36:01;99498.03;;;14.60;100.00
62201;BME280;48197;42.732;27.192;2023-07-29T03:38:27;99502.03;;;14.59;100.00
62201;BME280;48197;42.732;27.192;2023-07-29T03:40:54;99498.03;;;14.60;100.00
62201;BME280;48197;42.732;27.192;2023-07-29T03:43:21;99513.41;;;14.64;100.00
62201;BME280;48197;42.732;27.192;2023-07-29T03:45:48;99512.53;;;14.67;100.00
62201;BME280;48197;42.732;27.192;2023-07-29T03:48:15;99504.09;;;14.71;100.00
62201;BME280;48197;42.732;27.192;2023-07-29T03:50:42;99507.47;;;14.79;100.00
62201;BME280;48197;42.732;27.192;2023-07-29T03:53:09;99506.50;;;14.85;100.00
62201;BME280;48197;42.732;27.192;2023-07-29T03:55:36;99501.63;;;14.89;100.00
62201;BME280;48197;42.732;27.192;2023-07-29T03:58:03;99501.06;;;14.95;100.00
62201;BME280;48197;42.732;27.192;2023-07-29T04:00:30;99503.66;;;15.02;100.00
62201;BME280;48197;42.732;27.192;2023-07-29T04:02:56;99507.03;;;15.09;100.00
62201;BME280;48197;42.732;27.192;2023-07-29T04:05:23;99513.28;;;15.14;100.00
62201;BME280;48197;42.732;27.192;2023-07-29T04:07:50;99500.72;;;15.22;100.00
62201;BME280;48197;42.732;27.192;2023-07-29T04:10:17;99504.88;;;15.30;100.00
62201;BME280;48197;42.732;27.192;2023-07-29T04:12:44;99505.41;;;15.38;100.00
62201;BME280;48197;42.732;27.192;2023-07-29T04:15:11;99496.41;;;15.46;100.00
62201;BME280;48197;42.732;27.192;2023-07-29T04:17:38;99498.09;;;15.57;100.00
62201;BME280;48197;42.732;27.192;2023-07-29T04:20:05;99496.09;;;15.70;100.00
62201;BME280;48197;42.732;27.192;2023-07-29T04:22:32;99499.38;;;15.81;100.00
62201;BME280;48197;42.732;27.192;2023-07-29T04:24:59;99498.47;;;15.97;100.00
62201;BME280;48197;42.732;27.192;2023-07-29T04:27:26;99501.16;;;16.13;100.00
62201;BME280;48197;42.732;27.192;2023-07-29T04:29:54;99508.72;;;16.26;100.00
62201;BME280;48197;42.732;27.192;2023-07-29T04:32:21;99494.84;;;16.48;100.00
62201;BME280;48197;42.732;27.192;2023-07-29T04:34:47;99498.75;;;16.72;100.00
62201;BME280;48197;42.732;27.192;2023-07-29T04:37:14;99497.41;;;16.90;100.00
62201;BME280;48197;42.732;27.192;2023-07-29T04:39:41;99502.97;;;17.12;100.00
62201;BME280;48197;42.732;27.192;2023-07-29T04:42:08;99505.59;;;17.28;100.00
62201;BME280;48197;42.732;27.192;2023-07-29T04:44:34;99502.88;;;17.47;100.00
62201;BME280;48197;42.732;27.192;2023-07-29T04:47:02;99507.81;;;17.65;100.00
62201;BME280;48197;42.732;27.192;2023-07-29T04:49:29;99495.19;;;17.91;100.00
62201;BME280;48197;42.732;27.192;2023-07-29T04:51:55;99509.63;;;18.40;100.00
62201;BME280;48197;42.732;27.192;2023-07-29T04:54:23;99513.59;;;18.79;100.00
62201;BME280;48197;42.732;27.192;2023-07-29T04:56:50;99498.19;;;19.21;100.00
62201;BME280;48197;42.732;27.192;2023-07-29T04:59:17;99506.34;;;19.52;100.00
62201;BME280;48197;42.732;27.192;2023-07-29T05:01:44;99509.44;;;19.72;100.00
62201;BME280;48197;42.732;27.192;2023-07-29T05:04:11;99501.03;;;20.06;100.00
62201;BME280;48197;42.732;27.192;2023-07-29T05:06:38;99504.63;;;20.30;100.00
62201;BME280;48197;42.732;27.192;2023-07-29T05:09:15;99504.50;;;20.25;100.00
62201;BME280;48197;42.732;27.192;2023-07-29T05:11:42;99498.03;;;20.09;100.00
62201;BME280;48197;42.732;27.192;2023-07-29T05:14:12;99504.31;;;20.04;100.00
62201;BME280;48197;42.732;27.192;2023-07-29T05:16:39;99492.91;;;20.08;100.00
62201;BME280;48197;42.732;27.192;2023-07-29T05:19:06;99504.56;;;20.15;100.00
62201;BME280;48197;42.732;27.192;2023-07-29T05:21:34;99506.84;;;20.26;100.00
62201;BME280;48197;42.732;27.192;2023-07-29T05:24:01;99510.44;;;20.51;100.00
62201;BME280;48197;42.732;27.192;2023-07-29T05:26:28;99515.22;;;20.84;100.00
62201;BME280;48197;42.732;27.192;2023-07-29T05:28:56;99520.03;;;21.22;100.00
62201;BME280;48197;42.732;27.192;2023-07-29T05:31:23;99526.97;;;21.51;100.00
62201;BME280;48197;42.732;27.192;2023-07-29T05:33:50;99527.63;;;21.75;100.00
62201;BME280;48197;42.732;27.192;2023-07-29T05:36:17;99541.28;;;21.82;100.00
62201;BME280;48197;42.732;27.192;2023-07-29T05:38:44;99539.03;;;21.87;100.00
62201;BME280;48197;42.732;27.192;2023-07-29T05:41:12;99546.06;;;21.91;100.00
62201;BME280;48197;42.732;27.192;2023-07-29T05:43:39;99547.75;;;22.03;100.00
62201;BME280;48197;42.732;27.192;2023-07-29T05:46:06;99546.97;;;22.18;100.00
62201;BME280;48197;42.732;27.192;2023-07-29T05:48:33;99552.56;;;22.33;100.00
62201;BME280;48197;42.732;27.192;2023-07-29T05:50:59;99557.69;;;22.49;100.00
62201;BME280;48197;42.732;27.192;2023-07-29T05:53:26;99557.00;;;22.75;100.00
62201;BME280;48197;42.732;27.192;2023-07-29T05:55:53;99563.28;;;23.05;100.00
62201;BME280;48197;42.732;27.192;2023-07-29T05:58:19;99563.91;;;23.41;100.00
62201;BME280;48197;42.732;27.192;2023-07-29T06:00:46;99564.75;;;24.05;100.00
62201;BME280;48197;42.732;27.192;2023-07-29T06:03:12;99568.50;;;24.65;100.00
62201;BME280;48197;42.732;27.192;2023-07-29T06:05:39;99556.56;;;25.04;100.00
62201;BME280;48197;42.732;27.192;2023-07-29T06:08:05;99561.81;;;25.23;98.95
62201;BME280;48197;42.732;27.192;2023-07-29T06:10:35;99556.41;;;25.25;97.35
62201;BME280;48197;42.732;27.192;2023-07-29T06:13:01;99559.25;;;25.25;96.58
62201;BME280;48197;42.732;27.192;2023-07-29T06:15:30;99563.34;;;25.24;93.94
62201;BME280;48197;42.732;27.192;2023-07-29T06:17:56;99559.28;;;25.42;92.84
62201;BME280;48197;42.732;27.192;2023-07-29T06:20:23;99550.03;;;25.75;88.08
62201;BME280;48197;42.732;27.192;2023-07-29T06:22:50;99555.97;;;26.11;84.71
62201;BME280;48197;42.732;27.192;2023-07-29T06:25:17;99555.63;;;26.60;82.59
62201;BME280;48197;42.732;27.192;2023-07-29T06:27:44;99551.09;;;27.04;79.16
62201;BME280;48197;42.732;27.192;2023-07-29T06:30:10;99549.00;;;27.52;74.96
62201;BME280;48197;42.732;27.192;2023-07-29T06:32:37;99546.78;;;27.75;72.71
62201;BME280;48197;42.732;27.192;2023-07-29T06:35:03;99543.13;;;27.44;66.74
62201;BME280;48197;42.732;27.192;2023-07-29T06:37:30;99546.03;;;27.33;66.59
62201;BME280;48197;42.732;27.192;2023-07-29T06:39:57;99541.03;;;27.86;64.85
62201;BME280;48197;42.732;27.192;2023-07-29T06:42:24;99537.53;;;29.16;60.84
62201;BME280;48197;42.732;27.192;2023-07-29T06:44:50;99530.63;;;30.41;55.62
62201;BME280;48197;42.732;27.192;2023-07-29T06:47:16;99535.25;;;31.73;47.48
62201;BME280;48197;42.732;27.192;2023-07-29T06:49:43;99533.34;;;32.75;43.08
62201;BME280;48197;42.732;27.192;2023-07-29T06:52:10;99542.41;;;33.54;40.79
62201;BME280;48197;42.732;27.192;2023-07-29T06:54:36;99535.97;;;34.00;38.98
62201;BME280;48197;42.732;27.192;2023-07-29T06:57:04;99536.91;;;34.10;37.78
62201;BME280;48197;42.732;27.192;2023-07-29T06:59:31;99542.63;;;34.49;36.58
62201;BME280;48197;42.732;27.192;2023-07-29T07:01:58;99520.56;;;34.74;35.01
62201;BME280;48197;42.732;27.192;2023-07-29T07:04:26;99514.88;;;34.51;35.05
62201;BME280;48197;42.732;27.192;2023-07-29T07:06:54;99524.88;;;34.27;35.35
62201;BME280;48197;42.732;27.192;2023-07-29T07:09:21;99521.13;;;34.73;34.35
62201;BME280;48197;42.732;27.192;2023-07-29T07:11:48;99526.06;;;35.28;33.77
62201;BME280;48197;42.732;27.192;2023-07-29T07:14:15;99524.91;;;35.56;33.00
62201;BME280;48197;42.732;27.192;2023-07-29T07:16:41;99525.28;;;35.61;32.76
62201;BME280;48197;42.732;27.192;2023-07-29T07:19:08;99521.81;;;35.62;32.30
62201;BME280;48197;42.732;27.192;2023-07-29T07:21:36;99514.72;;;35.38;31.60
62201;BME280;48197;42.732;27.192;2023-07-29T07:24:03;99506.50;;;35.34;31.75
62201;BME280;48197;42.732;27.192;2023-07-29T07:26:30;99508.34;;;35.47;30.52
62201;BME280;48197;42.732;27.192;2023-07-29T07:28:56;99508.22;;;35.88;29.85
62201;BME280;48197;42.732;27.192;2023-07-29T07:31:23;99504.16;;;36.33;29.11
62201;BME280;48197;42.732;27.192;2023-07-29T07:33:49;99498.22;;;36.14;28.50
62201;BME280;48197;42.732;27.192;2023-07-29T07:36:16;99491.75;;;36.06;28.48
62201;BME280;48197;42.732;27.192;2023-07-29T07:38:42;99495.88;;;36.20;28.24
62201;BME280;48197;42.732;27.192;2023-07-29T07:41:08;99492.19;;;36.02;28.24
62201;BME280;48197;42.732;27.192;2023-07-29T07:43:36;99495.63;;;35.83;27.88
62201;BME280;48197;42.732;27.192;2023-07-29T07:46:02;99486.47;;;35.52;28.09
62201;BME280;48197;42.732;27.192;2023-07-29T07:48:29;99486.00;;;35.38;28.30
62201;BME280;48197;42.732;27.192;2023-07-29T07:50:56;99486.72;;;35.71;27.13
62201;BME280;48197;42.732;27.192;2023-07-29T07:53:22;99474.44;;;35.96;27.66
62201;BME280;48197;42.732;27.192;2023-07-29T07:55:51;99471.66;;;36.23;26.87
62201;BME280;48197;42.732;27.192;2023-07-29T07:58:18;99474.56;;;36.58;26.23
62201;BME280;48197;42.732;27.192;2023-07-29T08:00:44;99472.03;;;37.07;25.46
62201;BME280;48197;42.732;27.192;2023-07-29T08:03:10;99473.78;;;37.02;24.56
62201;BME280;48197;42.732;27.192;2023-07-29T08:05:36;99472.84;;;36.55;23.77
62201;BME280;48197;42.732;27.192;2023-07-29T08:08:04;99461.44;;;36.47;24.64
62201;BME280;48197;42.732;27.192;2023-07-29T08:10:29;99470.75;;;36.55;23.21
62201;BME280;48197;42.732;27.192;2023-07-29T08:12:56;99457.88;;;36.39;23.58
62201;BME280;48197;42.732;27.192;2023-07-29T08:15:23;99468.47;;;36.54;22.49
62201;BME280;48197;42.732;27.192;2023-07-29T08:17:50;99462.63;;;36.44;22.12
62201;BME280;48197;42.732;27.192;2023-07-29T08:20:16;99464.22;;;36.55;21.90
62201;BME280;48197;42.732;27.192;2023-07-29T08:22:42;99466.44;;;36.91;21.40
62201;BME280;48197;42.732;27.192;2023-07-29T08:25:09;99455.03;;;37.38;21.31
62201;BME280;48197;42.732;27.192;2023-07-29T08:27:35;99447.53;;;37.15;21.32
62201;BME280;48197;42.732;27.192;2023-07-29T08:30:02;99437.41;;;36.97;21.41
62201;BME280;48197;42.732;27.192;2023-07-29T08:32:29;99439.59;;;36.62;21.07
62201;BME280;48197;42.732;27.192;2023-07-29T08:34:56;99431.19;;;36.73;20.94
62201;BME280;48197;42.732;27.192;2023-07-29T08:37:23;99434.06;;;36.73;21.47
62201;BME280;48197;42.732;27.192;2023-07-29T08:39:50;99439.25;;;36.40;21.84
62201;BME280;48197;42.732;27.192;2023-07-29T08:42:17;99418.00;;;36.53;22.48
62201;BME280;48197;42.732;27.192;2023-07-29T08:44:44;99430.06;;;36.86;20.79
62201;BME280;48197;42.732;27.192;2023-07-29T08:47:12;99433.00;;;36.51;20.53
62201;BME280;48197;42.732;27.192;2023-07-29T08:49:39;99437.25;;;36.15;20.71
62201;BME280;48197;42.732;27.192;2023-07-29T08:52:07;99422.75;;;36.23;20.80
62201;BME280;48197;42.732;27.192;2023-07-29T08:54:33;99426.88;;;35.95;20.68
62201;BME280;48197;42.732;27.192;2023-07-29T08:57:01;99416.84;;;36.38;20.95
62201;BME280;48197;42.732;27.192;2023-07-29T08:59:28;99416.16;;;36.65;19.96
62201;BME280;48197;42.732;27.192;2023-07-29T09:01:55;99415.31;;;36.37;21.02
62201;BME280;48197;42.732;27.192;2023-07-29T09:04:23;99412.56;;;36.57;21.04
62201;BME280;48197;42.732;27.192;2023-07-29T09:06:51;99412.78;;;35.89;21.08
62201;BME280;48197;42.732;27.192;2023-07-29T09:09:18;99418.09;;;35.25;21.74
62201;BME280;48197;42.732;27.192;2023-07-29T09:11:45;99412.41;;;35.10;21.91
62201;BME280;48197;42.732;27.192;2023-07-29T09:14:11;99407.09;;;35.06;21.97
62201;BME280;48197;42.732;27.192;2023-07-29T09:48:19;99393.56;;;34.66;23.37
62201;BME280;48197;42.732;27.192;2023-07-29T09:50:48;99383.81;;;34.62;23.27
62201;BME280;48197;42.732;27.192;2023-07-29T09:53:15;99388.28;;;34.40;23.32
62201;BME280;48197;42.732;27.192;2023-07-29T09:55:46;99382.13;;;33.95;24.30
62201;BME280;48197;42.732;27.192;2023-07-29T10:01:16;99377.03;;;33.70;24.16
62201;BME280;48197;42.732;27.192;2023-07-29T10:03:44;99381.22;;;33.77;24.16
62201;BME280;48197;42.732;27.192;2023-07-29T10:06:11;99372.38;;;33.98;24.42
62201;BME280;48197;42.732;27.192;2023-07-29T10:08:37;99372.56;;;33.92;24.15
62201;BME280;48197;42.732;27.192;2023-07-29T10:11:05;99378.56;;;33.71;24.18
62201;BME280;48197;42.732;27.192;2023-07-29T10:13:33;99366.13;;;33.84;24.23
62201;BME280;48197;42.732;27.192;2023-07-29T10:16:00;99351.38;;;33.88;24.37
62201;BME280;48197;42.732;27.192;2023-07-29T10:18:33;99366.09;;;33.92;23.86
62201;BME280;48197;42.732;27.192;2023-07-29T10:21:00;99363.94;;;34.15;23.89
62201;BME280;48197;42.732;27.192;2023-07-29T10:23:27;99354.38;;;34.21;23.92
62201;BME280;48197;42.732;27.192;2023-07-29T10:26:02;99365.50;;;34.49;23.16
62201;BME280;48197;42.732;27.192;2023-07-29T10:28:30;99362.31;;;34.38;23.29
62201;BME280;48197;42.732;27.192;2023-07-29T10:30:57;99359.19;;;34.51;23.16
62201;BME280;48197;42.732;27.192;2023-07-29T10:33:24;99348.41;;;35.00;22.71
62201;BME280;48197;42.732;27.192;2023-07-29T10:35:51;99347.34;;;35.12;22.48
62201;BME280;48197;42.732;27.192;2023-07-29T10:38:18;99353.28;;;35.14;22.56
62201;BME280;48197;42.732;27.192;2023-07-29T10:40:47;99345.88;;;35.29;23.26
62201;BME280;48197;42.732;27.192;2023-07-29T10:43:18;99344.38;;;34.95;23.32
62201;BME280;48197;42.732;27.192;2023-07-29T10:45:48;99347.19;;;34.77;23.25
62201;BME280;48197;42.732;27.192;2023-07-29T10:53:47;99343.88;;;35.56;22.81
62201;BME280;48197;42.732;27.192;2023-07-29T10:56:13;99340.66;;;35.52;23.00
62201;BME280;48197;42.732;27.192;2023-07-29T10:58:51;99322.53;;;35.85;22.74
62201;BME280;48197;42.732;27.192;2023-07-29T11:01:26;99333.28;;;35.67;22.66
62201;BME280;48197;42.732;27.192;2023-07-29T11:14:54;99307.63;;;36.58;22.38
62201;BME280;48197;42.732;27.192;2023-07-29T11:17:21;99326.84;;;36.83;22.60
62201;BME280;48197;42.732;27.192;2023-07-29T11:19:48;99326.84;;;36.83;21.31
62201;BME280;48197;42.732;27.192;2023-07-29T11:22:16;99322.69;;;36.49;21.32
62201;BME280;48197;42.732;27.192;2023-07-29T11:24:42;99320.59;;;36.22;21.36
62201;BME280;48197;42.732;27.192;2023-07-29T11:27:16;99324.50;;;36.17;21.40
62201;BME280;48197;42.732;27.192;2023-07-29T11:29:43;99321.25;;;36.57;21.02
62201;BME280;48197;42.732;27.192;2023-07-29T11:32:10;99314.53;;;36.72;21.19
62201;BME280;48197;42.732;27.192;2023-07-29T11:34:37;99318.66;;;36.79;21.16
62201;BME280;48197;42.732;27.192;2023-07-29T11:37:04;99316.06;;;36.73;21.07
62201;BME280;48197;42.732;27.192;2023-07-29T11:39:32;99319.72;;;36.56;21.48
62201;BME280;48197;42.732;27.192;2023-07-29T11:41:59;99326.41;;;36.59;21.42
62201;BME280;48197;42.732;27.192;2023-07-29T11:44:26;99317.59;;;37.11;21.41
62201;BME280;48197;42.732;27.192;2023-07-29T11:46:53;99314.16;;;37.42;20.67
62201;BME280;48197;42.732;27.192;2023-07-29T11:49:20;99308.47;;;38.10;19.91
62201;BME280;48197;42.732;27.192;2023-07-29T11:51:46;99310.00;;;38.72;19.44
62201;BME280;48197;42.732;27.192;2023-07-29T11:54:13;99307.44;;;39.07;18.94
62201;BME280;48197;42.732;27.192;2023-07-29T11:56:39;99313.28;;;39.50;18.59
62201;BME280;48197;42.732;27.192;2023-07-29T11:59:06;99303.84;;;39.71;18.26
62201;BME280;48197;42.732;27.192;2023-07-29T12:01:33;99303.75;;;39.81;18.08
62201;BME280;48197;42.732;27.192;2023-07-29T12:04:01;99304.84;;;39.97;17.82
62201;BME280;48197;42.732;27.192;2023-07-29T12:06:28;99293.16;;;40.07;17.29
62201;BME280;48197;42.732;27.192;2023-07-29T12:08:57;99312.50;;;39.71;18.67
62201;BME280;48197;42.732;27.192;2023-07-29T12:11:24;99302.41;;;39.60;19.01
62201;BME280;48197;42.732;27.192;2023-07-29T12:13:53;99299.84;;;39.55;19.03
62201;BME280;48197;42.732;27.192;2023-07-29T12:16:20;99292.41;;;39.95;18.85
62201;BME280;48197;42.732;27.192;2023-07-29T12:18:47;99288.84;;;39.96;18.81
62201;BME280;48197;42.732;27.192;2023-07-29T12:21:15;99295.94;;;39.84;18.99
62201;BME280;48197;42.732;27.192;2023-07-29T12:23:40;99288.56;;;39.59;19.14
62201;BME280;48197;42.732;27.192;2023-07-29T12:26:08;99285.38;;;39.33;19.21
62201;BME280;48197;42.732;27.192;2023-07-29T12:28:35;99287.09;;;39.91;19.21
62201;BME280;48197;42.732;27.192;2023-07-29T12:31:01;99284.13;;;40.70;18.87
62201;BME280;48197;42.732;27.192;2023-07-29T12:33:36;99280.84;;;41.11;18.59
62201;BME280;48197;42.732;27.192;2023-07-29T12:36:08;99286.94;;;41.15;17.78
62201;BME280;48197;42.732;27.192;2023-07-29T12:38:37;99281.59;;;41.11;17.84
62201;BME280;48197;42.732;27.192;2023-07-29T12:41:04;99279.47;;;41.12;17.59
62201;BME280;48197;42.732;27.192;2023-07-29T12:43:30;99288.06;;;40.98;18.23
62201;BME280;48197;42.732;27.192;2023-07-29T12:45:57;99285.22;;;41.47;17.55
62201;BME280;48197;42.732;27.192;2023-07-29T12:48:24;99287.19;;;40.95;17.46
62201;BME280;48197;42.732;27.192;2023-07-29T12:50:51;99286.44;;;40.26;18.00
62201;BME280;48197;42.732;27.192;2023-07-29T12:53:18;99272.44;;;40.68;18.15
62201;BME280;48197;42.732;27.192;2023-07-29T12:55:46;99285.66;;;41.06;18.08
62201;BME280;48197;42.732;27.192;2023-07-29T12:58:13;99283.50;;;41.07;17.68
62201;BME280;48197;42.732;27.192;2023-07-29T13:00:40;99278.53;;;40.27;18.07
62201;BME280;48197;42.732;27.192;2023-07-29T13:03:07;99287.13;;;40.36;18.92
62201;BME280;48197;42.732;27.192;2023-07-29T13:05:34;99283.69;;;40.28;19.06
62201;BME280;48197;42.732;27.192;2023-07-29T13:08:01;99287.94;;;40.72;18.60
62201;BME280;48197;42.732;27.192;2023-07-29T13:10:28;99291.31;;;40.12;18.75
62201;BME280;48197;42.732;27.192;2023-07-29T13:12:55;99287.66;;;38.12;19.96
62201;BME280;48197;42.732;27.192;2023-07-29T13:15:22;99294.38;;;36.18;22.40
62201;BME280;48197;42.732;27.192;2023-07-29T13:17:49;99293.66;;;36.54;22.86
62201;BME280;48197;42.732;27.192;2023-07-29T13:20:16;99285.22;;;37.59;22.03
62201;BME280;48197;42.732;27.192;2023-07-29T13:22:42;99282.72;;;38.44;21.30
62201;BME280;48197;42.732;27.192;2023-07-29T13:25:09;99271.19;;;38.85;20.60
62201;BME280;48197;42.732;27.192;2023-07-29T13:27:36;99275.25;;;38.91;20.75
62201;BME280;48197;42.732;27.192;2023-07-29T13:30:03;99274.22;;;38.87;20.37
62201;BME280;48197;42.732;27.192;2023-07-29T13:32:30;99278.13;;;39.01;20.49
62201;BME280;48197;42.732;27.192;2023-07-29T13:34:56;99276.53;;;38.78;20.90
62201;BME280;48197;42.732;27.192;2023-07-29T13:37:23;99285.41;;;39.02;20.50
62201;BME280;48197;42.732;27.192;2023-07-29T13:39:49;99281.16;;;38.93;20.45